createdAt,value
2022-11-17T00:02:39.012Z,4.90
2022-11-17T00:07:43.128Z,4.77
2022-11-17T00:12:45.514Z,4.72
2022-11-17T00:17:47.930Z,4.71
2022-11-17T00:22:51.418Z,4.52
2022-11-17T00:27:53.659Z,4.55
2022-11-17T00:33:01.172Z,4.50
2022-11-17T00:38:04.629Z,4.43
2022-11-17T00:43:06.778Z,4.40
2022-11-17T00:48:08.730Z,4.32
2022-11-17T00:53:12.161Z,4.28
2022-11-17T00:58:13.993Z,4.21
2022-11-17T01:03:16.109Z,4.07
2022-11-17T01:08:19.799Z,4.12
2022-11-17T01:13:22.582Z,4.10
2022-11-17T01:18:24.901Z,4.03
2022-11-17T01:23:28.567Z,3.98
2022-11-17T01:28:30.990Z,3.94
2022-11-17T01:33:34.296Z,3.84
2022-11-17T01:38:38.177Z,3.84
2022-11-17T01:43:43.637Z,3.85
2022-11-17T01:48:46.578Z,3.82
2022-11-17T01:53:51.212Z,3.83
2022-11-17T01:58:58.746Z,3.84
2022-11-17T02:04:01.747Z,3.86
2022-11-17T02:09:05.005Z,3.86
2022-11-17T02:14:08.642Z,3.82
2022-11-17T02:19:15.457Z,3.82
2022-11-17T02:24:32.735Z,3.76
2022-11-17T02:29:42.319Z,3.81
2022-11-17T02:34:50.795Z,3.83
2022-11-17T02:39:59.460Z,3.80
2022-11-17T02:45:05.828Z,3.81
2022-11-17T02:50:11.003Z,3.76
2022-11-17T02:55:14.350Z,3.89
2022-11-17T03:00:20.378Z,3.84
2022-11-17T03:05:29.952Z,3.81
2022-11-17T03:10:45.616Z,3.75
2022-11-17T03:15:55.079Z,3.73
2022-11-17T03:21:06.525Z,3.74
2022-11-17T03:26:12.713Z,3.72
2022-11-17T03:31:18.344Z,3.76
2022-11-17T03:36:27.409Z,3.73
2022-11-17T03:41:33.305Z,3.74
2022-11-17T03:46:39.261Z,3.68
2022-11-17T03:51:41.287Z,3.69
2022-11-17T03:56:52.079Z,3.68
2022-11-17T04:01:56.168Z,3.68
2022-11-17T04:06:58.449Z,3.67
2022-11-17T04:12:00.614Z,3.68
2022-11-17T04:17:04.337Z,3.67
2022-11-17T04:22:06.473Z,3.68
2022-11-17T04:27:08.676Z,3.70
2022-11-17T04:32:11.806Z,3.74
2022-11-17T04:37:13.972Z,3.71
2022-11-17T04:42:15.923Z,3.68
2022-11-17T04:47:19.501Z,3.65
2022-11-17T04:52:25.538Z,3.67
2022-11-17T04:57:32.308Z,3.70
2022-11-17T05:02:35.400Z,3.70
2022-11-17T05:07:37.284Z,3.72
2022-11-17T05:12:39.363Z,3.73
2022-11-17T05:17:43.091Z,3.77
2022-11-17T05:22:44.784Z,3.79
2022-11-17T05:27:49.741Z,3.76
2022-11-17T05:32:54.252Z,3.77
2022-11-17T05:37:56.078Z,3.76
2022-11-17T05:42:57.836Z,3.81
2022-11-17T05:48:00.947Z,3.81
2022-11-17T05:53:04.047Z,3.87
2022-11-17T05:58:12.876Z,3.86
2022-11-17T06:03:20.267Z,3.84
2022-11-17T06:08:22.809Z,3.88
2022-11-17T06:13:24.631Z,3.95
2022-11-17T06:18:32.219Z,3.91
2022-11-17T06:23:36.460Z,4.00
2022-11-17T06:28:41.075Z,3.94
2022-11-17T06:33:45.397Z,4.00
2022-11-17T06:38:47.173Z,4.01
2022-11-17T06:43:48.955Z,4.02
2022-11-17T06:48:54.564Z,4.06
2022-11-17T06:53:56.636Z,4.04
2022-11-17T06:58:58.389Z,4.02
2022-11-17T07:04:01.561Z,4.06
2022-11-17T07:09:03.961Z,4.11
2022-11-17T07:14:06.069Z,4.12
2022-11-17T07:19:10.115Z,4.17
2022-11-17T07:24:12.405Z,4.19
2022-11-17T07:29:14.065Z,4.24
2022-11-17T07:34:17.487Z,4.26
2022-11-17T07:39:21.631Z,4.24
2022-11-17T07:44:24.257Z,4.28
2022-11-17T07:49:27.823Z,4.32
2022-11-17T07:54:29.634Z,4.40
2022-11-17T07:59:31.675Z,4.46
2022-11-17T08:04:35.179Z,4.52
2022-11-17T08:09:37.372Z,4.54
2022-11-17T08:14:39.101Z,4.60
2022-11-17T08:19:42.797Z,4.60
2022-11-17T08:24:44.959Z,4.57
2022-11-17T08:29:46.645Z,4.55
2022-11-17T08:34:50.185Z,4.57
2022-11-17T08:39:52.037Z,4.59
2022-11-17T08:44:54.098Z,4.56
2022-11-17T08:49:57.247Z,4.54
2022-11-17T08:54:59.488Z,4.54
2022-11-17T09:00:01.990Z,4.56
2022-11-17T09:05:07.093Z,4.57
2022-11-17T09:10:09.963Z,4.56
2022-11-17T09:15:11.681Z,4.65
2022-11-17T09:20:16.576Z,4.68
2022-11-17T09:25:18.927Z,4.63
2022-11-17T09:30:21.167Z,4.66
2022-11-17T09:35:25.498Z,4.63
2022-11-17T09:40:31.868Z,4.62
2022-11-17T09:45:39.889Z,4.62
2022-11-17T09:50:45.116Z,4.63
2022-11-17T09:55:52.077Z,4.69
2022-11-17T10:00:55.844Z,4.66
2022-11-17T10:06:01.732Z,4.70
2022-11-17T10:11:09.861Z,4.77
2022-11-17T10:16:14.195Z,4.77
2022-11-17T10:21:18.091Z,4.77
2022-11-17T10:26:19.821Z,4.80
2022-11-17T10:31:22.282Z,4.89
2022-11-17T10:36:28.764Z,4.93
2022-11-17T10:41:39.071Z,4.86
2022-11-17T10:46:58.919Z,4.78
2022-11-17T10:52:13.990Z,4.83
2022-11-17T10:57:19.914Z,4.88
2022-11-17T11:02:29.220Z,4.90
2022-11-17T11:07:32.345Z,4.91
2022-11-17T11:12:43.165Z,4.99
2022-11-17T11:17:45.277Z,5.01
2022-11-17T11:22:57.583Z,5.11
2022-11-17T11:28:11.984Z,5.08
2022-11-17T11:33:28.361Z,5.12
2022-11-17T11:38:44.988Z,5.13
2022-11-17T11:43:59.046Z,5.12
2022-11-17T11:49:12.349Z,5.18
2022-11-17T11:54:23.789Z,5.15
2022-11-17T11:59:36.969Z,5.14
2022-11-17T12:04:44.096Z,5.13
2022-11-17T12:09:58.894Z,5.17
2022-11-17T12:15:29.968Z,5.18
2022-11-17T12:20:56.966Z,5.17
2022-11-17T12:26:01.998Z,5.17
2022-11-17T12:31:10.126Z,5.22
2022-11-17T12:36:30.166Z,5.22
2022-11-17T12:42:06.603Z,5.19
2022-11-17T12:47:13.738Z,5.18
2022-11-17T12:52:24.859Z,5.21
2022-11-17T12:57:32.565Z,5.23
2022-11-17T13:02:59.368Z,5.18
2022-11-17T13:08:23.295Z,5.18
2022-11-17T13:13:26.677Z,5.20
2022-11-17T13:18:32.469Z,5.15
2022-11-17T13:23:34.570Z,5.14
2022-11-17T13:28:38.090Z,5.10
2022-11-17T13:33:40.646Z,5.05
2022-11-17T13:38:48.278Z,5.11
2022-11-17T13:43:52.746Z,5.15
2022-11-17T13:48:54.479Z,5.07
2022-11-17T13:54:02.289Z,5.11
2022-11-17T13:59:22.033Z,5.05
2022-11-17T14:04:24.725Z,5.04
2022-11-17T14:09:28.071Z,4.94
2022-11-17T14:14:36.603Z,4.87
2022-11-17T14:19:38.946Z,4.75
2022-11-17T14:24:41.148Z,4.62
2022-11-17T14:29:44.839Z,4.53
2022-11-17T14:34:47.105Z,4.45
2022-11-17T14:39:49.230Z,4.41
2022-11-17T14:44:52.642Z,4.39
2022-11-17T14:49:54.862Z,4.25
2022-11-17T14:54:57.059Z,4.18
2022-11-17T15:00:01.791Z,4.13
2022-11-17T15:05:04.621Z,4.07
2022-11-17T15:10:07.616Z,4.04
2022-11-17T15:15:11.970Z,3.99
2022-11-17T15:20:14.201Z,3.96
2022-11-17T15:25:16.603Z,3.92
2022-11-17T15:30:20.830Z,3.82
2022-11-17T15:35:22.646Z,3.83
2022-11-17T15:40:24.690Z,3.81
2022-11-17T15:45:28.030Z,3.74
2022-11-17T15:50:30.245Z,3.72
2022-11-17T15:55:33.881Z,3.66
2022-11-17T16:00:37.107Z,3.66
2022-11-17T16:05:38.838Z,3.64
2022-11-17T16:10:40.958Z,3.57
2022-11-17T16:15:47.693Z,3.55
2022-11-17T16:20:50.283Z,3.54
2022-11-17T16:25:52.137Z,3.54
2022-11-17T16:30:55.443Z,3.53
2022-11-17T16:36:04.566Z,3.48
2022-11-17T16:41:06.506Z,3.50
2022-11-17T16:46:15.613Z,3.47
2022-11-17T16:51:18.986Z,3.39
2022-11-17T16:56:20.820Z,3.46
2022-11-17T17:01:26.050Z,3.50
2022-11-17T17:06:28.436Z,3.45
2022-11-17T17:11:31.201Z,3.49
2022-11-17T17:16:36.669Z,3.44
2022-11-17T17:21:39.316Z,3.43
2022-11-17T17:26:41.675Z,3.45
2022-11-17T17:31:45.171Z,3.41
2022-11-17T17:36:47.278Z,3.42
2022-11-17T17:41:49.080Z,3.36
2022-11-17T17:46:52.200Z,3.36
2022-11-17T17:51:53.939Z,3.34
2022-11-17T17:56:55.912Z,3.31
2022-11-17T18:01:58.998Z,3.28
2022-11-17T18:07:00.788Z,3.25
2022-11-17T18:12:02.543Z,3.24
2022-11-17T18:17:05.788Z,3.21
2022-11-17T18:22:07.544Z,3.20
2022-11-17T18:27:09.619Z,3.22
2022-11-17T18:32:15.844Z,3.18
2022-11-17T18:37:17.595Z,3.15
2022-11-17T18:42:19.363Z,3.14
2022-11-17T18:47:22.493Z,3.08
2022-11-17T18:52:28.583Z,3.13
2022-11-17T18:57:34.332Z,3.10
2022-11-17T19:02:37.382Z,3.08
2022-11-17T19:07:39.166Z,3.05
2022-11-17T19:12:41.393Z,3.06
2022-11-17T19:17:44.642Z,3.02
2022-11-17T19:22:46.334Z,3.02
2022-11-17T19:27:48.122Z,2.99
2022-11-17T19:32:51.985Z,3.00
2022-11-17T19:37:55.950Z,3.00
2022-11-17T19:42:57.839Z,2.98
2022-11-17T19:48:01.828Z,2.91
2022-11-17T19:53:03.938Z,2.86
2022-11-17T19:58:06.089Z,2.84
2022-11-17T20:03:09.868Z,2.78
2022-11-17T20:08:12.542Z,2.78
2022-11-17T20:13:14.800Z,2.77
2022-11-17T20:18:18.511Z,2.76
2022-11-17T20:23:22.074Z,2.75
2022-11-17T20:28:24.827Z,2.77
2022-11-17T20:33:30.032Z,2.70
2022-11-17T20:38:32.575Z,2.68
2022-11-17T20:43:35.318Z,2.68
2022-11-17T20:48:38.476Z,2.65
2022-11-17T20:53:41.113Z,2.68
2022-11-17T20:58:43.543Z,2.63
2022-11-17T21:03:47.696Z,2.63
2022-11-17T21:08:49.735Z,2.61
2022-11-17T21:13:51.592Z,2.51
2022-11-17T21:18:54.797Z,2.44
2022-11-17T21:23:56.671Z,2.40
2022-11-17T21:29:04.818Z,2.38
2022-11-17T21:34:15.213Z,2.32
2022-11-17T21:39:17.377Z,2.25
2022-11-17T21:44:20.076Z,2.29
2022-11-17T21:49:23.217Z,2.19
2022-11-17T21:54:25.133Z,2.15
2022-11-17T21:59:26.848Z,2.18
2022-11-17T22:04:30.016Z,2.12
2022-11-17T22:09:31.685Z,2.16
2022-11-17T22:14:33.798Z,2.14
2022-11-17T22:19:37.283Z,2.10
2022-11-17T22:24:39.836Z,2.06
2022-11-17T22:29:42.146Z,2.08
2022-11-17T22:34:45.863Z,2.12
2022-11-17T22:39:48.001Z,2.13
2022-11-17T22:44:50.130Z,2.13
2022-11-17T22:49:53.569Z,2.12
2022-11-17T22:54:55.707Z,2.11
2022-11-17T22:59:57.763Z,2.10
2022-11-17T23:05:01.254Z,2.08
2022-11-17T23:10:03.511Z,2.09
2022-11-17T23:15:07.001Z,2.10
2022-11-17T23:20:12.117Z,2.01
2022-11-17T23:25:14.291Z,2.00
2022-11-17T23:30:17.319Z,2.00
2022-11-17T23:35:21.093Z,2.01
2022-11-17T23:40:22.856Z,1.98
2022-11-17T23:45:24.946Z,1.94
2022-11-17T23:50:27.977Z,2.02
2022-11-17T23:55:29.722Z,1.91
